sensor_id;sensor_type;location;lat;lon;timestamp;pressure;altitude;pressure_sealevel;temperature;humidity
66090;BME280;53113;45.602;11.904;2023-01-13T00:01:10;101886.14;;;5.39;70.81
66090;BME280;53113;45.602;11.904;2023-01-13T00:03:36;101876.71;;;5.37;70.72
66090;BME280;53113;45.602;11.904;2023-01-13T00:06:03;101876.58;;;5.36;70.88
66090;BME280;53113;45.602;11.904;2023-01-13T00:08:29;101873.61;;;5.35;70.80
66090;BME280;53113;45.602;11.904;2023-01-13T00:10:55;101871.50;;;5.35;70.84
66090;BME280;53113;45.602;11.904;2023-01-13T00:13:21;101868.41;;;5.38;70.82
66090;BME280;53113;45.602;11.904;2023-01-13T00:16:03;101861.79;;;5.42;70.81
66090;BME280;53113;45.602;11.904;2023-01-13T00:18:29;101860.98;;;5.44;70.77
66090;BME280;53113;45.602;11.904;2023-01-13T00:21:01;101859.53;;;5.46;70.87
66090;BME280;53113;45.602;11.904;2023-01-13T00:23:29;101851.42;;;5.47;70.93
66090;BME280;53113;45.602;11.904;2023-01-13T00:25:57;101843.88;;;5.46;70.88
66090;BME280;53113;45.602;11.904;2023-01-13T00:28:24;101834.58;;;5.46;70.94
66090;BME280;53113;45.602;11.904;2023-01-13T00:30:50;101832.49;;;5.46;70.98
66090;BME280;53113;45.602;11.904;2023-01-13T00:33:16;101831.81;;;5.45;70.99
66090;BME280;53113;45.602;11.904;2023-01-13T00:35:42;101827.30;;;5.43;70.95
66090;BME280;53113;45.602;11.904;2023-01-13T00:38:08;101817.20;;;5.41;70.93
66090;BME280;53113;45.602;11.904;2023-01-13T00:40:33;101814.79;;;5.40;70.91
66090;BME280;53113;45.602;11.904;2023-01-13T00:42:59;101810.44;;;5.39;70.93
66090;BME280;53113;45.602;11.904;2023-01-13T00:45:44;101813.32;;;5.42;70.82
66090;BME280;53113;45.602;11.904;2023-01-13T00:48:09;101811.42;;;5.45;70.79
66090;BME280;53113;45.602;11.904;2023-01-13T00:50:35;101813.73;;;5.49;70.83
66090;BME280;53113;45.602;11.904;2023-01-13T00:53:01;101815.98;;;5.50;70.80
66090;BME280;53113;45.602;11.904;2023-01-13T00:55:29;101817.66;;;5.52;70.82
66090;BME280;53113;45.602;11.904;2023-01-13T00:57:57;101819.98;;;5.51;70.82
66090;BME280;53113;45.602;11.904;2023-01-13T01:00:31;101815.98;;;5.50;70.85
66090;BME280;53113;45.602;11.904;2023-01-13T01:02:57;101818.29;;;5.50;70.88
66090;BME280;53113;45.602;11.904;2023-01-13T01:05:23;101824.30;;;5.48;70.90
66090;BME280;53113;45.602;11.904;2023-01-13T01:07:49;101823.14;;;5.47;70.93
66090;BME280;53113;45.602;11.904;2023-01-13T01:10:15;101823.04;;;5.45;70.85
66090;BME280;53113;45.602;11.904;2023-01-13T01:12:41;101823.84;;;5.42;70.84
66090;BME280;53113;45.602;11.904;2023-01-13T01:15:07;101824.98;;;5.40;70.92
66090;BME280;53113;45.602;11.904;2023-01-13T01:17:35;101827.52;;;5.38;70.94
66090;BME280;53113;45.602;11.904;2023-01-13T01:20:03;101835.33;;;5.40;70.95
66090;BME280;53113;45.602;11.904;2023-01-13T01:22:29;101838.94;;;5.42;70.92
66090;BME280;53113;45.602;11.904;2023-01-13T01:24:55;101834.44;;;5.45;71.06
66090;BME280;53113;45.602;11.904;2023-01-13T01:27:21;101836.16;;;5.46;71.04
66090;BME280;53113;45.602;11.904;2023-01-13T01:29:46;101829.15;;;5.46;71.11
66090;BME280;53113;45.602;11.904;2023-01-13T01:32:12;101830.05;;;5.45;71.15
66090;BME280;53113;45.602;11.904;2023-01-13T01:34:38;101822.34;;;5.44;71.24
66090;BME280;53113;45.602;11.904;2023-01-13T01:37:04;101824.05;;;5.41;71.17
66090;BME280;53113;45.602;11.904;2023-01-13T01:39:30;101820.48;;;5.38;71.19
66090;BME280;53113;45.602;11.904;2023-01-13T01:41:56;101820.98;;;5.34;71.17
66090;BME280;53113;45.602;11.904;2023-01-13T01:47:08;101829.52;;;5.26;71.15
66090;BME280;53113;45.602;11.904;2023-01-13T01:49:36;101828.52;;;5.25;71.22
66090;BME280;53113;45.602;11.904;2023-01-13T01:52:07;101827.21;;;5.27;71.16
66090;BME280;53113;45.602;11.904;2023-01-13T01:57:18;101828.56;;;5.33;71.16
66090;BME280;53113;45.602;11.904;2023-01-13T01:59:46;101822.22;;;5.34;71.13
66090;BME280;53113;45.602;11.904;2023-01-13T02:02:12;101815.71;;;5.34;71.17
66090;BME280;53113;45.602;11.904;2023-01-13T02:04:42;101811.17;;;5.33;71.19
66090;BME280;53113;45.602;11.904;2023-01-13T02:07:17;101806.34;;;5.31;71.06
66090;BME280;53113;45.602;11.904;2023-01-13T02:09:46;101811.13;;;5.30;71.21
66090;BME280;53113;45.602;11.904;2023-01-13T02:12:12;101811.58;;;5.27;71.17
66090;BME280;53113;45.602;11.904;2023-01-13T02:15:18;101801.67;;;5.24;71.18
66090;BME280;53113;45.602;11.904;2023-01-13T02:20:51;101797.19;;;5.17;71.03
66090;BME280;53113;45.602;11.904;2023-01-13T02:30:06;101782.27;;;5.17;71.07
66090;BME280;53113;45.602;11.904;2023-01-13T02:35:46;101767.79;;;5.24;71.02
66090;BME280;53113;45.602;11.904;2023-01-13T02:38:15;101767.73;;;5.26;71.04
66090;BME280;53113;45.602;11.904;2023-01-13T02:40:49;101765.31;;;5.25;71.08
66090;BME280;53113;45.602;11.904;2023-01-13T02:43:35;101770.24;;;5.24;70.98
66090;BME280;53113;45.602;11.904;2023-01-13T02:49:57;101770.05;;;5.20;70.89
66090;BME280;53113;45.602;11.904;2023-01-13T02:52:43;101762.48;;;5.16;70.92
66090;BME280;53113;45.602;11.904;2023-01-13T02:55:17;101760.68;;;5.12;71.00
66090;BME280;53113;45.602;11.904;2023-01-13T02:57:45;101757.85;;;5.08;70.91
66090;BME280;53113;45.602;11.904;2023-01-13T03:00:13;101758.29;;;5.05;71.01
66090;BME280;53113;45.602;11.904;2023-01-13T03:02:40;101760.67;;;5.03;70.99
66090;BME280;53113;45.602;11.904;2023-01-13T03:05:06;101758.98;;;5.01;71.04
66090;BME280;53113;45.602;11.904;2023-01-13T03:14:04;101746.41;;;5.08;70.95
66090;BME280;53113;45.602;11.904;2023-01-13T03:24:30;101739.95;;;5.03;70.85
66090;BME280;53113;45.602;11.904;2023-01-13T03:27:05;101740.38;;;5.00;70.96
66090;BME280;53113;45.602;11.904;2023-01-13T03:32:18;101741.48;;;4.94;71.02
66090;BME280;53113;45.602;11.904;2023-01-13T03:34:54;101743.00;;;4.91;70.97
66090;BME280;53113;45.602;11.904;2023-01-13T03:37:26;101740.96;;;4.89;70.99
66090;BME280;53113;45.602;11.904;2023-01-13T03:40:02;101740.80;;;4.89;71.05
66090;BME280;53113;45.602;11.904;2023-01-13T03:42:31;101727.38;;;4.91;70.92
66090;BME280;53113;45.602;11.904;2023-01-13T03:45:04;101723.59;;;4.94;70.94
66090;BME280;53113;45.602;11.904;2023-01-13T03:47:34;101724.04;;;4.96;70.90
66090;BME280;53113;45.602;11.904;2023-01-13T03:50:07;101726.29;;;4.97;70.87
66090;BME280;53113;45.602;11.904;2023-01-13T03:52:37;101725.47;;;4.95;70.85
66090;BME280;53113;45.602;11.904;2023-01-13T03:55:20;101725.55;;;4.94;70.84
66090;BME280;53113;45.602;11.904;2023-01-13T03:57:56;101724.06;;;4.91;70.79
66090;BME280;53113;45.602;11.904;2023-01-13T04:00:32;101723.45;;;4.88;70.71
66090;BME280;53113;45.602;11.904;2023-01-13T04:03:07;101719.03;;;4.84;70.68
66090;BME280;53113;45.602;11.904;2023-01-13T04:05:38;101714.25;;;4.81;70.75
66090;BME280;53113;45.602;11.904;2023-01-13T04:08:19;101719.45;;;4.77;70.80
66090;BME280;53113;45.602;11.904;2023-01-13T04:11:10;101726.61;;;4.73;70.82
66090;BME280;53113;45.602;11.904;2023-01-13T04:13:39;101734.15;;;4.69;70.71
66090;BME280;53113;45.602;11.904;2023-01-13T04:16:08;101729.35;;;4.65;70.92
66090;BME280;53113;45.602;11.904;2023-01-13T04:18:36;101729.90;;;4.64;70.94
66090;BME280;53113;45.602;11.904;2023-01-13T04:21:03;101734.77;;;4.66;70.92
66090;BME280;53113;45.602;11.904;2023-01-13T04:23:29;101732.17;;;4.70;71.06
66090;BME280;53113;45.602;11.904;2023-01-13T04:25:55;101730.16;;;4.73;71.13
66090;BME280;53113;45.602;11.904;2023-01-13T04:28:21;101735.69;;;4.75;71.10
66090;BME280;53113;45.602;11.904;2023-01-13T04:30:48;101735.51;;;4.75;71.26
66090;BME280;53113;45.602;11.904;2023-01-13T04:33:15;101733.75;;;4.75;71.31
66090;BME280;53113;45.602;11.904;2023-01-13T04:35:43;101735.83;;;4.76;71.37
66090;BME280;53113;45.602;11.904;2023-01-13T04:38:12;101733.73;;;4.76;71.40
66090;BME280;53113;45.602;11.904;2023-01-13T04:40:38;101732.02;;;4.75;71.32
66090;BME280;53113;45.602;11.904;2023-01-13T04:43:04;101726.64;;;4.73;71.34
66090;BME280;53113;45.602;11.904;2023-01-13T04:45:30;101722.66;;;4.71;71.36
66090;BME280;53113;45.602;11.904;2023-01-13T04:47:56;101726.76;;;4.69;71.44
66090;BME280;53113;45.602;11.904;2023-01-13T04:50:22;101732.10;;;4.67;71.43
66090;BME280;53113;45.602;11.904;2023-01-13T04:52:49;101734.94;;;4.66;71.38
66090;BME280;53113;45.602;11.904;2023-01-13T04:55:17;101736.21;;;4.70;71.36
66090;BME280;53113;45.602;11.904;2023-01-13T04:57:43;101733.48;;;4.73;71.43
66090;BME280;53113;45.602;11.904;2023-01-13T05:00:11;101730.95;;;4.75;71.44
66090;BME280;53113;45.602;11.904;2023-01-13T05:02:38;101734.20;;;4.77;71.55
66090;BME280;53113;45.602;11.904;2023-01-13T05:05:04;101730.48;;;4.78;71.55
66090;BME280;53113;45.602;11.904;2023-01-13T05:07:30;101732.24;;;4.78;71.73
66090;BME280;53113;45.602;11.904;2023-01-13T05:09:56;101732.60;;;4.78;71.73
66090;BME280;53113;45.602;11.904;2023-01-13T05:12:21;101735.23;;;4.78;71.74
66090;BME280;53113;45.602;11.904;2023-01-13T05:15:06;101730.73;;;4.77;71.85
66090;BME280;53113;45.602;11.904;2023-01-13T05:17:50;101731.45;;;4.76;71.80
66090;BME280;53113;45.602;11.904;2023-01-13T05:20:16;101729.58;;;4.74;71.83
66090;BME280;53113;45.602;11.904;2023-01-13T05:22:42;101730.86;;;4.72;71.74
66090;BME280;53113;45.602;11.904;2023-01-13T05:25:27;101730.60;;;4.70;71.77
66090;BME280;53113;45.602;11.904;2023-01-13T05:27:55;101727.60;;;4.71;71.75
66090;BME280;53113;45.602;11.904;2023-01-13T05:30:22;101729.78;;;4.73;71.76
66090;BME280;53113;45.602;11.904;2023-01-13T05:32:48;101734.88;;;4.78;71.71
66090;BME280;53113;45.602;11.904;2023-01-13T05:35:14;101732.13;;;4.81;71.67
66090;BME280;53113;45.602;11.904;2023-01-13T05:37:43;101735.37;;;4.84;71.75
66090;BME280;53113;45.602;11.904;2023-01-13T05:40:10;101740.39;;;4.85;71.80
66090;BME280;53113;45.602;11.904;2023-01-13T05:43:16;101743.37;;;4.86;71.91
66090;BME280;53113;45.602;11.904;2023-01-13T05:45:56;101738.46;;;4.85;71.80
66090;BME280;53113;45.602;11.904;2023-01-13T05:48:24;101738.34;;;4.84;71.78
66090;BME280;53113;45.602;11.904;2023-01-13T05:50:50;101738.41;;;4.82;71.72
66090;BME280;53113;45.602;11.904;2023-01-13T05:53:16;101734.25;;;4.80;71.68
66090;BME280;53113;45.602;11.904;2023-01-13T05:55:43;101732.08;;;4.78;71.72
66090;BME280;53113;45.602;11.904;2023-01-13T05:58:14;101734.45;;;4.75;71.67
66090;BME280;53113;45.602;11.904;2023-01-13T06:00:40;101744.74;;;4.72;71.73
66090;BME280;53113;45.602;11.904;2023-01-13T06:03:07;101749.85;;;4.71;71.76
66090;BME280;53113;45.602;11.904;2023-01-13T06:05:33;101752.23;;;4.73;71.67
66090;BME280;53113;45.602;11.904;2023-01-13T06:08:00;101750.74;;;4.76;71.66
66090;BME280;53113;45.602;11.904;2023-01-13T06:10:28;101749.95;;;4.79;71.74
66090;BME280;53113;45.602;11.904;2023-01-13T06:12:54;101750.61;;;4.79;71.74
66090;BME280;53113;45.602;11.904;2023-01-13T06:15:21;101745.84;;;4.80;71.79
66090;BME280;53113;45.602;11.904;2023-01-13T06:17:47;101747.24;;;4.80;71.80
66090;BME280;53113;45.602;11.904;2023-01-13T06:20:14;101751.83;;;4.80;71.77
66090;BME280;53113;45.602;11.904;2023-01-13T06:22:42;101755.05;;;4.78;71.80
66090;BME280;53113;45.602;11.904;2023-01-13T06:27:58;101758.73;;;4.73;71.81
66090;BME280;53113;45.602;11.904;2023-01-13T06:30:28;101762.47;;;4.71;71.79
66090;BME280;53113;45.602;11.904;2023-01-13T06:32:57;101760.18;;;4.72;71.97
66090;BME280;53113;45.602;11.904;2023-01-13T06:35:27;101757.63;;;4.75;71.97
66090;BME280;53113;45.602;11.904;2023-01-13T06:37:55;101749.90;;;4.80;72.05
66090;BME280;53113;45.602;11.904;2023-01-13T06:40:22;101751.71;;;4.83;71.96
66090;BME280;53113;45.602;11.904;2023-01-13T06:42:48;101746.73;;;4.85;71.93
66090;BME280;53113;45.602;11.904;2023-01-13T06:45:35;101740.36;;;4.86;72.10
66090;BME280;53113;45.602;11.904;2023-01-13T06:48:01;101733.16;;;4.87;71.96
66090;BME280;53113;45.602;11.904;2023-01-13T06:50:27;101735.60;;;4.87;71.99
66090;BME280;53113;45.602;11.904;2023-01-13T06:52:53;101735.98;;;4.86;72.05
66090;BME280;53113;45.602;11.904;2023-01-13T06:55:18;101733.04;;;4.85;72.03
66090;BME280;53113;45.602;11.904;2023-01-13T06:57:49;101735.38;;;4.83;72.03
66090;BME280;53113;45.602;11.904;2023-01-13T07:00:15;101742.98;;;4.82;71.98
66090;BME280;53113;45.602;11.904;2023-01-13T07:02:40;101749.33;;;4.81;71.99
66090;BME280;53113;45.602;11.904;2023-01-13T07:05:06;101747.59;;;4.80;72.06
66090;BME280;53113;45.602;11.904;2023-01-13T07:07:32;101750.77;;;4.84;72.06
66090;BME280;53113;45.602;11.904;2023-01-13T07:09:58;101760.65;;;4.88;72.04
66090;BME280;53113;45.602;11.904;2023-01-13T07:12:24;101772.13;;;4.91;72.09
66090;BME280;53113;45.602;11.904;2023-01-13T07:14:50;101765.93;;;4.93;72.07
66090;BME280;53113;45.602;11.904;2023-01-13T07:17:34;101759.59;;;4.93;72.21
66090;BME280;53113;45.602;11.904;2023-01-13T07:20:00;101758.89;;;4.93;72.26
66090;BME280;53113;45.602;11.904;2023-01-13T07:22:25;101754.67;;;4.94;72.28
66090;BME280;53113;45.602;11.904;2023-01-13T07:24:51;101754.30;;;4.94;72.31
66090;BME280;53113;45.602;11.904;2023-01-13T07:27:17;101755.73;;;4.94;72.29
66090;BME280;53113;45.602;11.904;2023-01-13T07:29:42;101760.29;;;4.93;72.34
66090;BME280;53113;45.602;11.904;2023-01-13T07:32:09;101765.58;;;4.92;72.37
66090;BME280;53113;45.602;11.904;2023-01-13T07:34:34;101768.98;;;4.91;72.37
66090;BME280;53113;45.602;11.904;2023-01-13T07:37:01;101765.84;;;4.91;72.31
66090;BME280;53113;45.602;11.904;2023-01-13T07:39:26;101760.35;;;4.92;72.39
66090;BME280;53113;45.602;11.904;2023-01-13T07:41:52;101761.64;;;4.95;72.35
66090;BME280;53113;45.602;11.904;2023-01-13T07:44:36;101757.36;;;5.01;72.41
66090;BME280;53113;45.602;11.904;2023-01-13T07:47:02;101751.97;;;5.05;72.36
66090;BME280;53113;45.602;11.904;2023-01-13T07:49:28;101755.70;;;5.08;72.57
66090;BME280;53113;45.602;11.904;2023-01-13T07:51:53;101761.06;;;5.11;72.53
66090;BME280;53113;45.602;11.904;2023-01-13T07:54:19;101758.71;;;5.13;72.55
66090;BME280;53113;45.602;11.904;2023-01-13T07:56:44;101755.33;;;5.15;72.60
66090;BME280;53113;45.602;11.904;2023-01-13T07:59:10;101750.58;;;5.15;72.65
66090;BME280;53113;45.602;11.904;2023-01-13T08:01:36;101758.38;;;5.17;72.67
66090;BME280;53113;45.602;11.904;2023-01-13T08:04:02;101762.39;;;5.18;72.76
66090;BME280;53113;45.602;11.904;2023-01-13T08:06:27;101761.67;;;5.18;72.78
66090;BME280;53113;45.602;11.904;2023-01-13T08:08:53;101759.85;;;5.20;72.81
66090;BME280;53113;45.602;11.904;2023-01-13T08:11:19;101753.92;;;5.24;72.88
66090;BME280;53113;45.602;11.904;2023-01-13T08:13:44;101748.95;;;5.30;72.93
66090;BME280;53113;45.602;11.904;2023-01-13T08:16:13;101752.65;;;5.39;72.78
66090;BME280;53113;45.602;11.904;2023-01-13T08:18:39;101757.13;;;5.46;72.80
66090;BME280;53113;45.602;11.904;2023-01-13T08:21:11;101768.64;;;5.53;72.87
66090;BME280;53113;45.602;11.904;2023-01-13T08:23:38;101772.70;;;5.57;72.90
66090;BME280;53113;45.602;11.904;2023-01-13T08:26:06;101771.17;;;5.60;72.86
66090;BME280;53113;45.602;11.904;2023-01-13T08:28:33;101772.10;;;5.63;72.90
66090;BME280;53113;45.602;11.904;2023-01-13T08:31:03;101780.08;;;5.66;72.98
66090;BME280;53113;45.602;11.904;2023-01-13T08:33:30;101779.79;;;5.69;73.03
66090;BME280;53113;45.602;11.904;2023-01-13T08:35:56;101783.93;;;5.71;73.08
66090;BME280;53113;45.602;11.904;2023-01-13T08:38:23;101794.18;;;5.74;73.07
66090;BME280;53113;45.602;11.904;2023-01-13T08:40:49;101790.16;;;5.78;73.05
66090;BME280;53113;45.602;11.904;2023-01-13T08:43:15;101784.79;;;5.85;73.17
66090;BME280;53113;45.602;11.904;2023-01-13T08:45:40;101787.38;;;5.96;73.10
66090;BME280;53113;45.602;11.904;2023-01-13T08:48:07;101791.46;;;6.04;73.13
66090;BME280;53113;45.602;11.904;2023-01-13T08:50:33;101800.09;;;6.13;73.13
66090;BME280;53113;45.602;11.904;2023-01-13T08:52:59;101796.14;;;6.19;73.04
66090;BME280;53113;45.602;11.904;2023-01-13T08:55:25;101789.47;;;6.23;73.01
66090;BME280;53113;45.602;11.904;2023-01-13T08:57:50;101787.88;;;6.28;73.08
66090;BME280;53113;45.602;11.904;2023-01-13T09:00:16;101787.30;;;6.33;73.00
66090;BME280;53113;45.602;11.904;2023-01-13T09:02:42;101778.31;;;6.38;73.13
66090;BME280;53113;45.602;11.904;2023-01-13T09:05:09;101775.11;;;6.43;73.26
66090;BME280;53113;45.602;11.904;2023-01-13T09:07:36;101769.29;;;6.48;73.13
66090;BME280;53113;45.602;11.904;2023-01-13T09:10:04;101767.70;;;6.52;73.31
66090;BME280;53113;45.602;11.904;2023-01-13T09:12:30;101770.90;;;6.60;73.27
66090;BME280;53113;45.602;11.904;2023-01-13T09:15:15;101777.63;;;6.71;73.23
66090;BME280;53113;45.602;11.904;2023-01-13T09:17:43;101779.60;;;6.82;73.21
66090;BME280;53113;45.602;11.904;2023-01-13T09:20:10;101772.64;;;6.93;73.18
66090;BME280;53113;45.602;11.904;2023-01-13T09:22:36;101758.73;;;7.01;73.07
66090;BME280;53113;45.602;11.904;2023-01-13T09:25:03;101757.15;;;7.08;73.12
66090;BME280;53113;45.602;11.904;2023-01-13T09:27:29;101765.48;;;7.15;73.05
66090;BME280;53113;45.602;11.904;2023-01-13T09:29:55;101767.17;;;7.20;73.02
66090;BME280;53113;45.602;11.904;2023-01-13T09:32:20;101756.73;;;7.25;73.01
66090;BME280;53113;45.602;11.904;2023-01-13T09:34:46;101752.49;;;7.30;72.96
66090;BME280;53113;45.602;11.904;2023-01-13T09:37:34;101751.12;;;7.33;72.89
66090;BME280;53113;45.602;11.904;2023-01-13T09:40:13;101764.38;;;7.36;72.79
66090;BME280;53113;45.602;11.904;2023-01-13T09:42:48;101761.58;;;7.39;72.80
66090;BME280;53113;45.602;11.904;2023-01-13T09:45:49;101761.45;;;7.45;72.78
66090;BME280;53113;45.602;11.904;2023-01-13T09:51:11;101763.59;;;7.60;72.68
66090;BME280;53113;45.602;11.904;2023-01-13T09:53:48;101762.59;;;7.66;72.74
66090;BME280;53113;45.602;11.904;2023-01-13T09:56:15;101766.21;;;7.72;72.56
66090;BME280;53113;45.602;11.904;2023-01-13T09:58:43;101770.20;;;7.77;72.60
66090;BME280;53113;45.602;11.904;2023-01-13T10:03:35;101776.55;;;7.84;72.42
66090;BME280;53113;45.602;11.904;2023-01-13T10:08:40;101777.83;;;7.91;72.32
66090;BME280;53113;45.602;11.904;2023-01-13T10:11:22;101781.73;;;7.95;72.12
66090;BME280;53113;45.602;11.904;2023-01-13T10:14:27;101783.14;;;7.98;72.11
66090;BME280;53113;45.602;11.904;2023-01-13T10:17:35;101787.08;;;8.04;72.07
66090;BME280;53113;45.602;11.904;2023-01-13T10:20:22;101770.30;;;8.15;71.80
66090;BME280;53113;45.602;11.904;2023-01-13T10:25:26;101758.05;;;8.27;71.58
66090;BME280;53113;45.602;11.904;2023-01-13T10:27:55;101751.44;;;8.33;71.35
66090;BME280;53113;45.602;11.904;2023-01-13T10:30:42;101741.39;;;8.36;71.28
66090;BME280;53113;45.602;11.904;2023-01-13T10:38:23;101728.75;;;8.49;71.21
66090;BME280;53113;45.602;11.904;2023-01-13T10:41:00;101726.47;;;8.53;71.19
66090;BME280;53113;45.602;11.904;2023-01-13T10:43:28;101716.46;;;8.55;71.05
66090;BME280;53113;45.602;11.904;2023-01-13T10:46:08;101711.23;;;8.58;70.90
66090;BME280;53113;45.602;11.904;2023-01-13T10:48:42;101711.11;;;8.60;70.85
66090;BME280;53113;45.602;11.904;2023-01-13T10:56:36;101699.35;;;8.79;70.57
66090;BME280;53113;45.602;11.904;2023-01-13T10:59:24;101697.15;;;8.83;70.34
66090;BME280;53113;45.602;11.904;2023-01-13T11:12:40;101683.73;;;8.93;69.96
66090;BME280;53113;45.602;11.904;2023-01-13T11:15:13;101675.98;;;8.93;69.90
66090;BME280;53113;45.602;11.904;2023-01-13T11:20:24;101678.23;;;8.94;69.85
66090;BME280;53113;45.602;11.904;2023-01-13T11:23:00;101674.18;;;8.93;69.78
66090;BME280;53113;45.602;11.904;2023-01-13T11:25:36;101670.45;;;8.94;69.61
66090;BME280;53113;45.602;11.904;2023-01-13T11:36:27;101652.77;;;9.08;69.39
66090;BME280;53113;45.602;11.904;2023-01-13T11:39:22;101645.30;;;9.12;69.31
66090;BME280;53113;45.602;11.904;2023-01-13T11:42:01;101638.34;;;9.16;69.34
66090;BME280;53113;45.602;11.904;2023-01-13T11:47:45;101629.29;;;9.23;69.23
66090;BME280;53113;45.602;11.904;2023-01-13T11:56:07;101625.67;;;9.31;69.16
66090;BME280;53113;45.602;11.904;2023-01-13T11:58:56;101624.00;;;9.32;69.09
66090;BME280;53113;45.602;11.904;2023-01-13T12:06:34;101601.29;;;9.37;69.00
66090;BME280;53113;45.602;11.904;2023-01-13T12:09:41;101601.35;;;9.39;69.11
66090;BME280;53113;45.602;11.904;2023-01-13T12:15:23;101600.93;;;9.53;68.93
66090;BME280;53113;45.602;11.904;2023-01-13T12:21:02;101608.75;;;9.64;68.69
66090;BME280;53113;45.602;11.904;2023-01-13T12:23:39;101605.45;;;9.69;68.71
66090;BME280;53113;45.602;11.904;2023-01-13T12:26:13;101603.64;;;9.73;68.71
66090;BME280;53113;45.602;11.904;2023-01-13T12:31:15;101602.72;;;9.80;68.81
66090;BME280;53113;45.602;11.904;2023-01-13T12:38:39;101599.45;;;9.87;68.47
66090;BME280;53113;45.602;11.904;2023-01-13T12:44:25;101587.85;;;9.92;68.01
66090;BME280;53113;45.602;11.904;2023-01-13T12:46:53;101581.06;;;9.93;67.97
66090;BME280;53113;45.602;11.904;2023-01-13T12:52:08;101583.53;;;9.96;67.78
66090;BME280;53113;45.602;11.904;2023-01-13T12:57:22;101575.17;;;10.06;67.49
66090;BME280;53113;45.602;11.904;2023-01-13T13:02:40;101569.60;;;10.19;67.46
66090;BME280;53113;45.602;11.904;2023-01-13T13:07:45;101564.05;;;10.26;67.39
66090;BME280;53113;45.602;11.904;2023-01-13T13:10:44;101562.86;;;10.28;67.14
66090;BME280;53113;45.602;11.904;2023-01-13T13:13:45;101566.59;;;10.31;66.92
66090;BME280;53113;45.602;11.904;2023-01-13T13:24:42;101563.58;;;10.37;66.45
66090;BME280;53113;45.602;11.904;2023-01-13T13:30:21;101559.77;;;10.38;66.43
66090;BME280;53113;45.602;11.904;2023-01-13T13:41:13;101564.33;;;10.65;67.00
66090;BME280;53113;45.602;11.904;2023-01-13T13:44:30;101564.66;;;10.79;67.07
66090;BME280;53113;45.602;11.904;2023-01-13T13:47:16;101569.71;;;10.94;67.02
66090;BME280;53113;45.602;11.904;2023-01-13T13:49:44;101572.71;;;11.03;66.61
66090;BME280;53113;45.602;11.904;2023-01-13T13:53:00;101575.36;;;11.11;66.30
66090;BME280;53113;45.602;11.904;2023-01-13T13:55:30;101575.25;;;11.21;65.88
66090;BME280;53113;45.602;11.904;2023-01-13T13:57:58;101570.34;;;11.26;65.57
66090;BME280;53113;45.602;11.904;2023-01-13T14:00:32;101568.01;;;11.30;65.42
66090;BME280;53113;45.602;11.904;2023-01-13T14:03:15;101565.96;;;11.36;65.52
66090;BME280;53113;45.602;11.904;2023-01-13T14:05:59;101568.38;;;11.48;65.76
66090;BME280;53113;45.602;11.904;2023-01-13T14:08:31;101572.13;;;11.64;65.79
66090;BME280;53113;45.602;11.904;2023-01-13T14:10:58;101571.05;;;11.82;65.70
66090;BME280;53113;45.602;11.904;2023-01-13T14:13:29;101569.31;;;12.03;65.51
66090;BME280;53113;45.602;11.904;2023-01-13T14:16:00;101564.27;;;12.25;65.30
66090;BME280;53113;45.602;11.904;2023-01-13T14:18:28;101558.32;;;12.46;64.90
66090;BME280;53113;45.602;11.904;2023-01-13T14:21:16;101557.62;;;12.66;64.64
66090;BME280;53113;45.602;11.904;2023-01-13T14:23:53;101553.90;;;12.86;64.17
66090;BME280;53113;45.602;11.904;2023-01-13T14:26:30;101552.52;;;13.03;63.80
66090;BME280;53113;45.602;11.904;2023-01-13T14:28:58;101553.42;;;13.19;63.66
66090;BME280;53113;45.602;11.904;2023-01-13T14:31:25;101550.84;;;13.36;63.37
66090;BME280;53113;45.602;11.904;2023-01-13T14:33:53;101548.88;;;13.50;63.24
66090;BME280;53113;45.602;11.904;2023-01-13T14:36:24;101544.61;;;13.64;63.11
66090;BME280;53113;45.602;11.904;2023-01-13T14:43:59;101534.09;;;14.01;62.10
66090;BME280;53113;45.602;11.904;2023-01-13T14:46:39;101537.80;;;14.11;61.65
66090;BME280;53113;45.602;11.904;2023-01-13T14:51:51;101536.73;;;14.25;60.50
66090;BME280;53113;45.602;11.904;2023-01-13T14:54:43;101535.10;;;14.25;60.10
66090;BME280;53113;45.602;11.904;2023-01-13T14:57:27;101544.57;;;14.20;59.50
66090;BME280;53113;45.602;11.904;2023-01-13T15:15:50;101547.92;;;12.85;57.69
66090;BME280;53113;45.602;11.904;2023-01-13T15:18:16;101552.89;;;12.66;57.73
66090;BME280;53113;45.602;11.904;2023-01-13T15:20:43;101553.00;;;12.46;57.67
66090;BME280;53113;45.602;11.904;2023-01-13T15:23:09;101554.48;;;12.25;57.46
66090;BME280;53113;45.602;11.904;2023-01-13T15:25:38;101555.30;;;12.03;57.70
66090;BME280;53113;45.602;11.904;2023-01-13T15:28:05;101555.41;;;11.83;57.86
66090;BME280;53113;45.602;11.904;2023-01-13T15:30:31;101554.77;;;11.63;58.02
66090;BME280;53113;45.602;11.904;2023-01-13T15:32:58;101562.66;;;11.46;58.21
66090;BME280;53113;45.602;11.904;2023-01-13T15:35:26;101570.05;;;11.28;58.51
66090;BME280;53113;45.602;11.904;2023-01-13T15:37:54;101570.81;;;11.11;58.79
66090;BME280;53113;45.602;11.904;2023-01-13T15:40:39;101570.13;;;10.94;58.93
66090;BME280;53113;45.602;11.904;2023-01-13T15:43:05;101573.77;;;10.75;59.25
66090;BME280;53113;45.602;11.904;2023-01-13T15:45:49;101575.50;;;10.59;59.44
66090;BME280;53113;45.602;11.904;2023-01-13T15:48:34;101576.02;;;10.42;59.80
66090;BME280;53113;45.602;11.904;2023-01-13T15:51:00;101581.48;;;10.28;59.95
66090;BME280;53113;45.602;11.904;2023-01-13T15:53:26;101578.89;;;10.15;60.14
66090;BME280;53113;45.602;11.904;2023-01-13T15:55:54;101581.69;;;10.00;60.26
66090;BME280;53113;45.602;11.904;2023-01-13T15:58:24;101587.77;;;9.88;60.51